Time;durP1;ratioP1;P1;durP2;ratioP2;P2;SDS_P1;SDS_P2;PMS_P1;PMS_P2;Temp;Humidity;BMP_temperature;BMP_pressure;BME280_temperature;BME280_humidity;BME280_pressure;Samples;Min_cycle;Max_cycle;Signal;HPM_P1;HPM_P2
2021/10/27 00:05:39;;;;;;;4.93;3.70;;;9.90;99.90;;;;;;5029866;28;20392;-54
2021/10/27 00:08:05;;;;;;;8.27;3.47;;;9.90;99.90;;;;;;5028146;28;20890;-51
2021/10/27 00:13:52;;;;;;;3.57;2.93;;;9.80;99.90;;;;;;5010191;28;20254;-53
2021/10/27 00:16:18;;;;;;;3.67;3.37;;;9.80;99.90;;;;;;5014409;28;20415;-52
2021/10/27 00:18:43;;;;;;;3.33;3.00;;;9.80;99.90;;;;;;5014270;28;20231;-54
2021/10/27 00:21:09;;;;;;;3.97;3.33;;;9.80;99.90;;;;;;5013873;28;20184;-49
2021/10/27 00:23:35;;;;;;;4.27;2.97;;;9.70;99.90;;;;;;5013321;28;20642;-53
2021/10/27 00:26:01;;;;;;;5.00;3.17;;;9.70;99.90;;;;;;5013585;28;20213;-53
2021/10/27 00:28:26;;;;;;;3.50;3.20;;;9.70;99.90;;;;;;5014003;28;20547;-52
2021/10/27 00:30:52;;;;;;;5.57;3.60;;;9.60;99.90;;;;;;5013259;28;20660;-52
2021/10/27 00:33:18;;;;;;;6.00;3.90;;;9.60;99.90;;;;;;5013739;28;20203;-49
2021/10/27 00:35:43;;;;;;;4.67;3.70;;;9.70;99.90;;;;;;5013795;28;20171;-52
2021/10/27 00:38:09;;;;;;;4.33;3.93;;;9.60;99.90;;;;;;5013522;28;20576;-51
2021/10/27 00:40:35;;;;;;;3.70;3.40;;;9.50;99.90;;;;;;5013744;28;20262;-55
2021/10/27 00:43:00;;;;;;;3.20;2.80;;;9.40;99.90;;;;;;5013624;28;20320;-58
2021/10/27 00:45:26;;;;;;;3.20;2.97;;;9.40;99.90;;;;;;5014224;28;20627;-54
2021/10/27 00:47:52;;;;;;;4.60;3.33;;;9.50;99.90;;;;;;5013685;28;20167;-57
2021/10/27 00:50:17;;;;;;;6.20;3.70;;;9.60;99.90;;;;;;5013351;28;20170;-53
2021/10/27 00:52:43;;;;;;;3.43;2.90;;;9.60;99.90;;;;;;5012953;28;20222;-54
2021/10/27 00:55:09;;;;;;;4.10;3.40;;;9.60;99.90;;;;;;5012957;28;20632;-55
2021/10/27 00:57:37;;;;;;;5.13;3.70;;;9.60;99.90;;;;;;5013000;28;20204;-57
2021/10/27 01:00:06;;;;;;;3.90;3.40;;;9.60;99.90;;;;;;5013468;28;20407;-55
2021/10/27 01:02:31;;;;;;;3.60;3.10;;;9.50;99.90;;;;;;5013601;28;20417;-57
2021/10/27 01:04:57;;;;;;;7.20;3.33;;;9.40;99.90;;;;;;5013571;28;20492;-54
2021/10/27 01:07:23;;;;;;;3.87;3.47;;;9.40;99.90;;;;;;5013130;28;20200;-57
2021/10/27 01:09:49;;;;;;;6.60;4.20;;;9.50;99.90;;;;;;5013937;28;20418;-57
2021/10/27 01:12:15;;;;;;;4.30;3.87;;;9.40;99.90;;;;;;5013700;28;20497;-54
2021/10/27 01:14:44;;;;;;;5.70;4.57;;;9.40;99.90;;;;;;5013600;28;20174;-55
2021/10/27 01:17:12;;;;;;;4.07;3.77;;;9.40;99.90;;;;;;5013148;28;20204;-53
2021/10/27 01:19:52;;;;;;;5.07;3.93;;;9.40;99.90;;;;;;5013160;28;20413;-56
2021/10/27 01:22:24;;;;;;;4.40;4.00;;;9.30;99.90;;;;;;5013258;28;20484;-51
2021/10/27 01:24:50;;;;;;;4.93;4.33;;;9.30;99.90;;;;;;5013202;28;20388;-53
2021/10/27 01:27:16;;;;;;;5.53;4.57;;;9.30;99.90;;;;;;5016285;28;20416;-57
2021/10/27 01:29:42;;;;;;;4.33;3.93;;;9.30;99.90;;;;;;5017055;28;20409;-55
2021/10/27 01:32:09;;;;;;;4.87;4.43;;;9.30;99.90;;;;;;5017020;28;20594;-56
2021/10/27 01:34:35;;;;;;;7.40;6.00;;;9.30;99.90;;;;;;5017000;28;20510;-55
2021/10/27 01:37:01;;;;;;;9.07;4.60;;;9.20;99.90;;;;;;5016702;28;20416;-55
2021/10/27 01:39:28;;;;;;;4.20;3.80;;;9.20;99.90;;;;;;5016894;28;20408;-53
2021/10/27 01:41:54;;;;;;;4.10;3.70;;;9.20;99.90;;;;;;5016092;28;20414;-56
2021/10/27 01:44:19;;;;;;;6.33;4.73;;;9.30;99.90;;;;;;5017041;28;20600;-54
2021/10/27 01:46:45;;;;;;;4.60;4.20;;;9.20;99.90;;;;;;5016569;28;20171;-55
2021/10/27 01:49:12;;;;;;;4.97;3.93;;;9.30;99.90;;;;;;5016615;28;20171;-56
2021/10/27 01:51:40;;;;;;;4.90;4.50;;;9.20;99.90;;;;;;5016687;28;20183;-56
2021/10/27 01:54:06;;;;;;;5.30;4.80;;;9.30;99.90;;;;;;5016509;28;20528;-54
2021/10/27 01:56:33;;;;;;;4.60;3.70;;;9.20;99.90;;;;;;5015944;28;20436;-57
2021/10/27 01:58:58;;;;;;;4.40;4.03;;;9.20;99.90;;;;;;5016243;28;20457;-56
2021/10/27 02:01:25;;;;;;;4.80;4.27;;;9.20;99.90;;;;;;5016537;28;20418;-54
2021/10/27 02:03:51;;;;;;;4.63;4.20;;;9.20;99.90;;;;;;5016144;28;20201;-53
2021/10/27 02:06:17;;;;;;;4.87;4.13;;;9.20;99.90;;;;;;5016199;28;20500;-53
2021/10/27 02:08:43;;;;;;;5.00;4.50;;;9.00;99.90;;;;;;5016427;28;20882;-57
2021/10/27 02:11:09;;;;;;;5.47;4.97;;;8.90;99.90;;;;;;5015901;28;20413;-54
2021/10/27 02:13:35;;;;;;;6.07;4.17;;;8.80;99.90;;;;;;5016331;28;20212;-55
2021/10/27 02:16:01;;;;;;;4.83;4.40;;;8.80;99.90;;;;;;4990409;28;20426;-56
2021/10/27 02:18:27;;;;;;;6.93;4.57;;;8.80;99.90;;;;;;5015842;28;20457;-54
2021/10/27 02:20:53;;;;;;;6.23;5.43;;;8.70;99.90;;;;;;5016022;28;20403;-57
2021/10/27 02:23:18;;;;;;;7.47;6.87;;;8.60;99.90;;;;;;5015940;28;20253;-53
2021/10/27 02:25:44;;;;;;;6.53;5.93;;;8.70;99.90;;;;;;5016128;28;20170;-52
2021/10/27 02:28:10;;;;;;;6.70;5.77;;;8.70;99.90;;;;;;5015993;28;20269;-56
2021/10/27 02:30:36;;;;;;;4.90;4.50;;;8.70;99.90;;;;;;5015785;28;20266;-56
2021/10/27 02:33:02;;;;;;;6.57;5.97;;;8.80;99.90;;;;;;5016039;28;20199;-52
2021/10/27 02:35:29;;;;;;;5.60;5.10;;;8.70;99.90;;;;;;5015354;28;20950;-58
2021/10/27 02:37:54;;;;;;;7.07;6.37;;;8.80;99.90;;;;;;5015393;28;20880;-56
2021/10/27 02:40:20;;;;;;;8.37;5.77;;;8.90;99.90;;;;;;5015510;28;20413;-54
2021/10/27 02:42:46;;;;;;;6.50;5.90;;;8.80;99.90;;;;;;5015349;28;20672;-58
2021/10/27 02:45:12;;;;;;;5.47;4.93;;;8.90;99.90;;;;;;5016021;28;20171;-48
2021/10/27 02:47:38;;;;;;;5.23;4.67;;;9.00;99.90;;;;;;5015197;28;20672;-53
2021/10/27 02:50:05;;;;;;;5.43;4.93;;;9.00;99.90;;;;;;5015085;28;20413;-52
2021/10/27 02:52:31;;;;;;;6.33;5.80;;;8.90;99.90;;;;;;5015134;28;20473;-56
2021/10/27 02:54:57;;;;;;;5.60;5.20;;;8.90;99.90;;;;;;5015370;28;20398;-55
2021/10/27 02:57:23;;;;;;;6.40;5.50;;;8.80;99.90;;;;;;5015149;28;20566;-57
2021/10/27 02:59:49;;;;;;;5.60;4.97;;;8.70;99.90;;;;;;5015433;28;20406;-54
2021/10/27 03:02:14;;;;;;;5.73;5.17;;;8.70;99.90;;;;;;5012750;28;20178;-56
2021/10/27 03:04:40;;;;;;;6.23;5.30;;;8.70;99.90;;;;;;5014784;28;20631;-55
2021/10/27 03:07:06;;;;;;;5.63;5.13;;;8.80;99.90;;;;;;5015146;28;20176;-53
2021/10/27 03:09:31;;;;;;;5.10;4.70;;;8.80;99.90;;;;;;5014922;28;20181;-56
2021/10/27 03:11:57;;;;;;;4.83;4.13;;;8.80;99.90;;;;;;5014959;28;20629;-50
2021/10/27 03:14:23;;;;;;;5.40;4.90;;;8.90;99.90;;;;;;5015384;28;20259;-56
2021/10/27 03:16:48;;;;;;;7.63;5.70;;;8.90;99.90;;;;;;5014860;28;20182;-53
2021/10/27 03:19:14;;;;;;;5.23;4.73;;;8.80;99.90;;;;;;5014371;28;20204;-54
2021/10/27 03:21:39;;;;;;;7.03;6.00;;;8.70;99.90;;;;;;5015037;28;20213;-56
2021/10/27 03:24:07;;;;;;;4.80;4.40;;;8.60;99.90;;;;;;5014870;28;20566;-57
2021/10/27 03:26:32;;;;;;;5.00;4.50;;;8.60;99.90;;;;;;5015102;28;20179;-57
2021/10/27 03:28:58;;;;;;;5.10;4.60;;;8.70;99.90;;;;;;5014685;28;20802;-53
2021/10/27 03:31:24;;;;;;;5.00;4.60;;;8.70;99.90;;;;;;5014776;28;20554;-54
2021/10/27 03:33:50;;;;;;;6.60;4.80;;;8.70;99.90;;;;;;5014473;28;20548;-57
2021/10/27 03:36:15;;;;;;;10.83;4.97;;;8.80;99.90;;;;;;5015262;28;20418;-55
2021/10/27 03:38:41;;;;;;;5.50;5.10;;;8.70;99.90;;;;;;5014681;28;20206;-54
2021/10/27 03:41:07;;;;;;;5.50;4.77;;;8.70;99.90;;;;;;5014376;28;20172;-55
2021/10/27 03:43:33;;;;;;;8.80;6.40;;;8.70;99.90;;;;;;5014599;28;20305;-53
2021/10/27 03:45:58;;;;;;;5.30;4.80;;;8.60;99.90;;;;;;5014290;28;20816;-55
2021/10/27 03:48:24;;;;;;;6.10;5.37;;;8.60;99.90;;;;;;5013761;28;20714;-53
2021/10/27 03:50:50;;;;;;;5.87;5.37;;;8.50;99.90;;;;;;5014240;28;20229;-57
2021/10/27 03:53:16;;;;;;;5.03;4.63;;;8.50;99.90;;;;;;5013987;28;20545;-57
2021/10/27 03:55:42;;;;;;;7.60;6.63;;;8.50;99.90;;;;;;5014312;28;20177;-55
2021/10/27 03:58:07;;;;;;;6.50;5.03;;;8.50;99.90;;;;;;5014049;28;20457;-56
2021/10/27 04:00:36;;;;;;;7.90;6.33;;;8.50;99.90;;;;;;5014020;28;20170;-59
2021/10/27 04:03:02;;;;;;;6.00;5.43;;;8.50;99.90;;;;;;5014268;28;20251;-57
2021/10/27 04:05:27;;;;;;;4.87;4.27;;;8.60;99.90;;;;;;5013694;28;20496;-54
2021/10/27 04:07:53;;;;;;;5.40;4.90;;;8.60;99.90;;;;;;5014011;28;20252;-52
2021/10/27 04:10:18;;;;;;;6.47;5.37;;;8.60;99.90;;;;;;5014208;28;20172;-55
2021/10/27 04:12:44;;;;;;;6.10;5.50;;;8.60;99.90;;;;;;5013903;28;20198;-52
2021/10/27 04:15:11;;;;;;;7.60;6.00;;;8.60;99.90;;;;;;5013874;28;20659;-55
2021/10/27 04:17:37;;;;;;;6.60;6.00;;;8.60;99.90;;;;;;5013791;28;20601;-54
2021/10/27 04:20:07;;;;;;;5.70;5.20;;;8.50;99.90;;;;;;5013566;28;20459;-55
2021/10/27 04:22:34;;;;;;;5.37;4.93;;;8.50;99.90;;;;;;5012513;28;20199;-56
2021/10/27 04:25:00;;;;;;;7.93;5.90;;;8.40;99.90;;;;;;4995432;28;20409;-52
2021/10/27 04:27:25;;;;;;;5.40;4.90;;;8.40;99.90;;;;;;4994261;28;20474;-56
2021/10/27 04:29:51;;;;;;;5.07;4.57;;;8.40;99.90;;;;;;4994179;28;20218;-56
2021/10/27 04:32:17;;;;;;;7.13;4.90;;;8.40;99.90;;;;;;4993823;28;20538;-53
2021/10/27 04:34:43;;;;;;;5.30;4.80;;;8.50;99.90;;;;;;4993963;28;20986;-55
2021/10/27 04:37:09;;;;;;;5.43;4.20;;;8.50;99.90;;;;;;4994661;28;20500;-53
2021/10/27 04:39:35;;;;;;;7.90;5.07;;;8.40;99.90;;;;;;4994326;28;20529;-54
2021/10/27 04:42:01;;;;;;;4.60;4.20;;;8.20;99.90;;;;;;4994154;28;20613;-57
2021/10/27 04:44:27;;;;;;;6.63;3.90;;;8.10;99.90;;;;;;4993705;28;20431;-50
2021/10/27 04:46:53;;;;;;;5.90;4.60;;;8.20;99.90;;;;;;5004298;28;20914;-55
2021/10/27 04:49:18;;;;;;;8.97;5.60;;;8.20;99.90;;;;;;5013343;28;20235;-55
2021/10/27 04:51:44;;;;;;;4.87;4.47;;;8.20;99.90;;;;;;5013619;28;20171;-57
2021/10/27 04:54:09;;;;;;;4.47;4.07;;;8.20;99.90;;;;;;5013381;28;20200;-55
2021/10/27 04:56:35;;;;;;;4.57;3.87;;;8.20;99.90;;;;;;5013280;28;20180;-56
2021/10/27 04:59:01;;;;;;;4.80;4.40;;;8.20;99.90;;;;;;5013749;28;20199;-57
2021/10/27 05:01:27;;;;;;;6.13;5.57;;;8.20;99.90;;;;;;5019306;28;20659;-55
2021/10/27 05:03:53;;;;;;;4.60;4.10;;;8.20;99.90;;;;;;5019451;28;20568;-56
2021/10/27 05:06:19;;;;;;;6.67;5.07;;;8.20;99.90;;;;;;5019870;28;20414;-57
2021/10/27 05:08:47;;;;;;;4.60;4.20;;;8.20;99.90;;;;;;5019601;28;20562;-55
2021/10/27 05:11:12;;;;;;;4.30;3.90;;;8.30;99.90;;;;;;5020210;28;20413;-55
2021/10/27 05:13:38;;;;;;;4.17;3.63;;;8.30;99.90;;;;;;5018334;28;20800;-55
2021/10/27 05:16:04;;;;;;;5.83;4.50;;;8.20;99.90;;;;;;5019451;28;20557;-56
2021/10/27 05:18:29;;;;;;;5.77;3.97;;;8.30;99.90;;;;;;5019909;28;20208;-57
2021/10/27 05:20:55;;;;;;;5.47;4.97;;;8.30;99.90;;;;;;5019242;28;20174;-55
2021/10/27 05:23:21;;;;;;;5.53;5.07;;;8.30;99.90;;;;;;5019659;28;20191;-53
2021/10/27 05:25:46;;;;;;;4.90;4.50;;;8.30;99.90;;;;;;5019566;28;20600;-52
2021/10/27 05:28:12;;;;;;;6.43;5.73;;;8.30;99.90;;;;;;5019528;28;20224;-52
2021/10/27 05:30:38;;;;;;;5.60;5.10;;;8.30;99.90;;;;;;5019741;28;20182;-56
2021/10/27 05:33:04;;;;;;;6.43;5.83;;;8.30;99.90;;;;;;5019385;28;20427;-54
2021/10/27 05:35:31;;;;;;;5.60;5.10;;;8.40;99.90;;;;;;5019128;28;20463;-54
2021/10/27 05:37:57;;;;;;;5.90;5.13;;;8.30;99.90;;;;;;5019267;28;20228;-51
2021/10/27 05:40:23;;;;;;;6.53;6.03;;;8.30;99.90;;;;;;5019418;28;20439;-55
2021/10/27 05:42:50;;;;;;;7.27;6.57;;;8.30;99.90;;;;;;5019295;28;20192;-56
2021/10/27 05:45:18;;;;;;;8.10;7.40;;;8.30;99.90;;;;;;5020375;28;20419;-51
2021/10/27 05:47:49;;;;;;;7.90;7.10;;;8.40;99.90;;;;;;5018806;28;20492;-54
2021/10/27 05:55:34;;;;;;;7.47;6.67;;;8.50;99.90;;;;;;5020732;28;20997;-54
2021/10/27 05:58:04;;;;;;;10.60;6.80;;;8.50;99.90;;;;;;5002484;28;20454;-56
2021/10/27 06:00:31;;;;;;;7.60;6.80;;;8.60;99.90;;;;;;5008371;28;20173;-53
2021/10/27 06:02:58;;;;;;;7.70;7.00;;;8.50;99.90;;;;;;5018644;28;20404;-54
2021/10/27 06:05:24;;;;;;;7.50;6.80;;;8.50;99.90;;;;;;5019671;28;20495;-56
2021/10/27 06:07:50;;;;;;;9.30;8.27;;;8.60;99.90;;;;;;5019260;28;20514;-58
2021/10/27 06:10:22;;;;;;;7.30;5.97;;;8.60;99.90;;;;;;5019214;28;20175;-55
2021/10/27 06:12:51;;;;;;;8.50;6.70;;;8.60;99.90;;;;;;5015571;28;20408;-57
2021/10/27 06:15:18;;;;;;;8.40;7.50;;;8.60;99.90;;;;;;5016298;28;20900;-54
2021/10/27 06:17:44;;;;;;;8.70;7.83;;;8.70;99.90;;;;;;5016055;28;20865;-55
2021/10/27 06:20:10;;;;;;;8.80;7.90;;;8.80;99.90;;;;;;5015843;28;20456;-54
2021/10/27 06:22:36;;;;;;;10.40;8.10;;;8.90;99.90;;;;;;5015879;28;20414;-55
2021/10/27 06:25:03;;;;;;;10.70;9.80;;;9.00;99.90;;;;;;5015818;28;20545;-54
2021/10/27 06:27:29;;;;;;;10.90;9.43;;;9.10;99.90;;;;;;5016163;28;20594;-55
2021/10/27 06:30:05;;;;;;;11.40;9.40;;;9.20;99.90;;;;;;5006804;28;20410;-54
2021/10/27 06:32:54;;;;;;;13.00;9.30;;;9.30;99.90;;;;;;4996555;28;20160;-57
2021/10/27 06:35:25;;;;;;;9.23;7.47;;;9.30;99.90;;;;;;4996619;28;20391;-56
2021/10/27 06:38:45;;;;;;;9.80;8.80;;;9.30;99.90;;;;;;4978845;28;20442;-57
2021/10/27 06:48:52;;;;;;;11.53;10.30;;;9.60;99.90;;;;;;5004105;28;20412;-52
2021/10/27 06:51:18;;;;;;;11.93;10.73;;;9.70;99.90;;;;;;5015509;28;20424;-54
2021/10/27 06:53:44;;;;;;;12.90;11.30;;;9.70;99.90;;;;;;5014999;28;20453;-52
2021/10/27 06:56:13;;;;;;;13.57;12.23;;;9.90;99.90;;;;;;5015796;28;20251;-53
2021/10/27 06:58:55;;;;;;;14.70;11.20;;;10.00;99.90;;;;;;5015545;28;20450;-55
2021/10/27 07:17:49;;;;;;;11.27;9.97;;;10.70;99.90;;;;;;4981701;28;20452;-55
2021/10/27 07:20:15;;;;;;;12.60;10.83;;;10.80;99.90;;;;;;5017192;28;20786;-52
2021/10/27 07:22:40;;;;;;;13.77;11.87;;;10.80;99.90;;;;;;5014943;28;20409;-52
2021/10/27 07:25:08;;;;;;;12.60;11.40;;;10.70;99.90;;;;;;5014126;28;20188;-53
2021/10/27 07:27:34;;;;;;;13.03;10.00;;;10.20;99.90;;;;;;5015259;28;20259;-52
2021/10/27 07:30:00;;;;;;;13.40;11.77;;;10.20;99.90;;;;;;5014534;28;20838;-54
2021/10/27 07:32:27;;;;;;;10.40;9.33;;;10.30;99.90;;;;;;5014907;28;20172;-58
2021/10/27 07:42:36;;;;;;;11.30;10.30;;;10.80;99.90;;;;;;5014648;28;20769;-53
2021/10/27 07:45:02;;;;;;;10.90;9.80;;;10.80;99.90;;;;;;5014345;28;20920;-56
2021/10/27 07:47:28;;;;;;;11.80;10.60;;;10.80;99.90;;;;;;5014430;28;20966;-56
2021/10/27 07:49:54;;;;;;;13.00;10.13;;;10.90;99.90;;;;;;5014716;28;20407;-54
2021/10/27 07:52:19;;;;;;;14.43;11.50;;;11.00;99.90;;;;;;5014472;28;20227;-58
2021/10/27 07:54:46;;;;;;;12.17;10.97;;;11.00;99.90;;;;;;5014048;28;20207;-54
2021/10/27 07:57:12;;;;;;;13.50;11.23;;;11.10;99.90;;;;;;5014376;28;20645;-52
2021/10/27 07:59:37;;;;;;;12.43;11.23;;;11.10;99.90;;;;;;5014102;28;20429;-52
2021/10/27 08:02:06;;;;;;;11.17;9.97;;;11.20;99.90;;;;;;5013999;28;20500;-51
2021/10/27 08:04:34;;;;;;;12.20;10.87;;;11.30;99.90;;;;;;5014062;28;20589;-51
2021/10/27 08:07:00;;;;;;;12.90;10.70;;;11.30;99.90;;;;;;5014255;28;20406;-54
2021/10/27 08:09:26;;;;;;;11.50;10.40;;;11.30;99.90;;;;;;5014092;28;20415;-56
2021/10/27 08:11:51;;;;;;;11.77;10.50;;;11.30;99.90;;;;;;5014038;28;20800;-54
2021/10/27 08:14:17;;;;;;;12.50;11.23;;;11.40;99.90;;;;;;5014339;28;20200;-56
2021/10/27 08:16:45;;;;;;;11.73;10.50;;;11.50;99.90;;;;;;5014185;28;20601;-55
2021/10/27 08:19:11;;;;;;;19.50;14.80;;;11.50;99.90;;;;;;5014175;28;20196;-54
2021/10/27 08:21:37;;;;;;;26.17;18.33;;;11.50;99.90;;;;;;5014247;28;20392;-56
2021/10/27 08:24:03;;;;;;;31.00;20.30;;;11.50;99.90;;;;;;5013655;28;20924;-54
2021/10/27 08:26:30;;;;;;;18.13;14.27;;;11.50;99.90;;;;;;5013865;28;20419;-55
2021/10/27 08:28:57;;;;;;;15.80;13.10;;;11.50;99.90;;;;;;5013690;28;20970;-57
2021/10/27 08:34:32;;;;;;;21.87;12.67;;;11.70;99.90;;;;;;5004270;28;20958;-55
2021/10/27 08:36:57;;;;;;;16.10;12.40;;;11.70;99.90;;;;;;5014039;28;20453;-54
2021/10/27 08:39:23;;;;;;;12.30;10.97;;;11.70;99.90;;;;;;5010685;28;20451;-57
2021/10/27 08:41:48;;;;;;;13.17;11.13;;;11.80;99.90;;;;;;4994488;28;20667;-58
2021/10/27 08:44:14;;;;;;;11.47;10.43;;;11.80;99.90;;;;;;4994038;28;20602;-57
2021/10/27 08:46:41;;;;;;;13.37;10.87;;;12.00;99.90;;;;;;4997825;28;20160;-56
2021/10/27 08:49:07;;;;;;;14.70;12.23;;;12.10;99.90;;;;;;5013693;28;20177;-54
2021/10/27 08:51:35;;;;;;;13.43;12.03;;;12.30;99.90;;;;;;5013903;28;20416;-55
2021/10/27 08:54:02;;;;;;;13.53;11.23;;;12.30;99.90;;;;;;5013534;28;20475;-56
2021/10/27 08:56:28;;;;;;;11.50;10.37;;;12.40;99.90;;;;;;5014330;28;20468;-57
2021/10/27 08:59:03;;;;;;;12.17;10.83;;;12.20;99.90;;;;;;5013440;28;20545;-57
2021/10/27 09:04:19;;;;;;;13.30;12.00;;;12.40;99.90;;;;;;5013508;28;20415;-57
2021/10/27 09:07:15;;;;;;;12.67;11.20;;;12.30;99.90;;;;;;4993520;28;20407;-55
2021/10/27 10:06:21;;;;;;;13.13;11.47;;;14.20;99.90;;;;;;5016978;28;20392;-53
2021/10/27 10:08:49;;;;;;;14.43;11.33;;;14.10;99.90;;;;;;5016244;28;20440;-58
2021/10/27 10:11:15;;;;;;;11.30;10.20;;;14.10;99.90;;;;;;5016493;28;20419;-53
2021/10/27 10:13:43;;;;;;;11.40;10.20;;;14.10;99.90;;;;;;5016338;28;20460;-57
2021/10/27 10:16:08;;;;;;;11.17;9.97;;;14.20;99.90;;;;;;5016054;28;20166;-56
2021/10/27 10:18:38;;;;;;;14.03;11.80;;;14.20;99.90;;;;;;5016186;28;20477;-56
2021/10/27 10:21:05;;;;;;;10.13;9.03;;;14.40;99.90;;;;;;5016024;28;20173;-57
2021/10/27 10:23:30;;;;;;;8.70;6.83;;;14.40;99.90;;;;;;5016208;28;20890;-53
2021/10/27 10:26:01;;;;;;;11.13;7.10;;;14.40;99.90;;;;;;5015855;28;20415;-56
2021/10/27 10:28:36;;;;;;;10.03;9.13;;;14.50;99.90;;;;;;5017240;28;20398;-52
2021/10/27 10:31:02;;;;;;;6.53;5.93;;;14.60;99.90;;;;;;5016264;28;20397;-55
2021/10/27 10:33:43;;;;;;;8.47;7.57;;;14.70;99.90;;;;;;5015969;28;20430;-54
2021/10/27 10:36:26;;;;;;;8.63;6.57;;;14.90;99.90;;;;;;5016388;28;20402;-54
2021/10/27 11:27:26;;;;;;;5.57;4.43;;;22.80;93.00;;;;;;5015444;28;20463;-51
2021/10/27 11:40:49;;;;;;;5.50;3.73;;;24.40;90.90;;;;;;5012285;28;20411;-56
2021/10/27 11:43:31;;;;;;;4.30;3.90;;;24.40;89.40;;;;;;5015132;28;20439;-57
2021/10/27 11:46:01;;;;;;;4.97;3.53;;;23.90;88.90;;;;;;5014531;28;20483;-56
2021/10/27 11:50:57;;;;;;;4.50;3.90;;;23.70;89.70;;;;;;5014485;28;20545;-56
2021/10/27 11:53:29;;;;;;;3.80;3.47;;;24.10;88.80;;;;;;5014379;28;20465;-54
2021/10/27 11:55:56;;;;;;;4.77;4.23;;;23.00;90.50;;;;;;5015702;28;20484;-55
2021/10/27 11:58:36;;;;;;;3.60;3.30;;;23.00;90.60;;;;;;5014178;28;20533;-53
2021/10/27 12:01:03;;;;;;;4.37;3.17;;;23.90;89.90;;;;;;5014410;28;20394;-54
2021/10/27 12:03:40;;;;;;;6.73;4.00;;;25.00;87.40;;;;;;5013169;28;20530;-55
2021/10/27 12:06:12;;;;;;;4.63;4.20;;;25.40;85.80;;;;;;5014519;28;20406;-53
2021/10/27 12:14:16;;;;;;;5.97;4.00;;;26.80;77.50;;;;;;5014055;28;20795;-54
2021/10/27 12:19:17;;;;;;;4.37;3.83;;;25.80;80.70;;;;;;5013569;28;20751;-52
2021/10/27 12:21:51;;;;;;;5.23;4.13;;;25.10;81.90;;;;;;5013828;28;20411;-54
2021/10/27 12:24:20;;;;;;;4.77;3.67;;;24.70;83.10;;;;;;5012835;28;20502;-54
2021/10/27 12:27:01;;;;;;;4.73;4.17;;;24.70;83.20;;;;;;4996288;28;20490;-54
2021/10/27 12:29:29;;;;;;;4.30;3.83;;;24.00;83.60;;;;;;5013950;28;20383;-53
2021/10/27 12:32:04;;;;;;;3.83;3.30;;;24.30;84.70;;;;;;4996848;28;20469;-53
2021/10/27 12:34:31;;;;;;;4.60;3.60;;;25.00;81.90;;;;;;5013682;28;20426;-55
2021/10/27 12:36:59;;;;;;;5.40;3.80;;;25.70;80.20;;;;;;5013611;28;20907;-54
2021/10/27 12:39:44;;;;;;;3.90;3.10;;;25.40;79.30;;;;;;5013305;28;20455;-56
2021/10/27 12:42:12;;;;;;;3.13;1.90;;;25.30;81.00;;;;;;5013806;28;20395;-54
2021/10/27 12:44:52;;;;;;;3.53;2.47;;;27.10;76.00;;;;;;5014122;28;20427;-51
2021/10/27 12:47:27;;;;;;;2.80;2.20;;;27.20;75.50;;;;;;5013833;28;20403;-58
2021/10/27 12:50:21;;;;;;;2.97;2.43;;;28.30;71.60;;;;;;4998508;28;20932;-56
2021/10/27 12:52:55;;;;;;;3.20;2.37;;;29.40;68.80;;;;;;4977184;28;20420;-58
2021/10/27 12:55:24;;;;;;;5.03;2.40;;;29.90;65.50;;;;;;5002300;28;20407;-53
2021/10/27 12:57:54;;;;;;;3.93;2.60;;;29.50;65.80;;;;;;5013529;28;20450;-57
2021/10/27 13:05:51;;;;;;;4.70;2.33;;;27.60;70.50;;;;;;5014041;28;20449;-54
2021/10/27 13:08:48;;;;;;;2.87;2.40;;;29.50;66.90;;;;;;5013302;28;20815;-57
2021/10/27 13:14:09;;;;;;;4.70;2.13;;;30.80;61.70;;;;;;5013910;28;20431;-54
2021/10/27 13:30:02;;;;;;;3.20;2.90;;;29.90;59.80;;;;;;5017587;28;20755;-55
2021/10/27 13:32:28;;;;;;;2.83;2.53;;;28.80;60.40;;;;;;5017415;28;20391;-56
2021/10/27 13:34:53;;;;;;;2.37;2.17;;;29.30;60.40;;;;;;5017108;28;20435;-56
2021/10/27 13:37:20;;;;;;;4.10;2.23;;;29.80;59.60;;;;;;5017013;28;20407;-53
2021/10/27 13:39:47;;;;;;;8.13;2.23;;;30.80;58.90;;;;;;5016905;28;20172;-54
2021/10/27 13:42:26;;;;;;;4.20;2.30;;;30.80;58.30;;;;;;5017854;28;20407;-53
2021/10/27 13:47:44;;;;;;;4.97;2.97;;;26.90;65.30;;;;;;5018719;28;20420;-52
2021/10/27 14:06:44;;;;;;;4.80;3.70;;;20.10;90.20;;;;;;5016476;28;20797;-57
2021/10/27 14:09:18;;;;;;;4.07;3.63;;;19.50;90.80;;;;;;4998940;28;20476;-57
2021/10/27 14:12:19;;;;;;;3.70;3.00;;;19.00;93.20;;;;;;5016692;28;20398;-55
2021/10/27 14:17:20;;;;;;;5.43;4.13;;;18.80;94.50;;;;;;5016672;28;20406;-57
2021/10/27 14:19:52;;;;;;;9.97;8.03;;;18.20;93.90;;;;;;5015802;28;20219;-59
2021/10/27 14:22:41;;;;;;;22.50;17.77;;;17.90;96.60;;;;;;5016472;28;20855;-57
2021/10/27 15:19:40;;;;;;;3.50;3.20;;;15.50;99.90;;;;;;4995454;28;20881;-57
2021/10/27 15:51:08;;;;;;;6.00;3.30;;;14.70;99.90;;;;;;5014875;28;20390;-54
2021/10/27 15:53:35;;;;;;;4.23;3.53;;;14.60;99.90;;;;;;5014407;28;20462;-56
2021/10/27 15:56:03;;;;;;;8.03;4.20;;;14.60;99.90;;;;;;5014916;28;20270;-57
2021/10/27 15:58:28;;;;;;;6.23;3.70;;;14.60;99.90;;;;;;5014688;28;20456;-56
2021/10/27 16:00:54;;;;;;;8.83;4.70;;;14.40;99.90;;;;;;5014396;28;20407;-58
2021/10/27 16:03:21;;;;;;;3.93;3.60;;;14.30;99.90;;;;;;5014456;28;20195;-55
2021/10/27 16:05:49;;;;;;;5.17;3.50;;;14.20;99.90;;;;;;4996909;28;20177;-54
2021/10/27 16:08:17;;;;;;;7.00;4.10;;;14.20;99.90;;;;;;5014231;28;20405;-55
2021/10/27 16:10:44;;;;;;;6.60;3.40;;;14.10;99.90;;;;;;5014047;28;20447;-58
2021/10/27 16:13:10;;;;;;;5.10;3.50;;;14.10;99.90;;;;;;5014286;28;20455;-57
2021/10/27 16:18:03;;;;;;;7.23;4.90;;;13.90;99.90;;;;;;5013829;28;20271;-55
2021/10/27 16:20:29;;;;;;;8.40;7.30;;;13.80;99.90;;;;;;5014015;28;20222;-55
2021/10/27 16:22:55;;;;;;;9.40;7.33;;;13.60;99.90;;;;;;5013706;28;20403;-54
2021/10/27 16:25:20;;;;;;;7.57;6.27;;;13.50;99.90;;;;;;5013589;28;20201;-53
2021/10/27 16:27:47;;;;;;;6.40;5.50;;;13.40;99.90;;;;;;5014043;28;20405;-53
2021/10/27 16:30:12;;;;;;;7.40;6.40;;;13.40;99.90;;;;;;5013702;28;20173;-54
2021/10/27 16:32:38;;;;;;;6.70;5.90;;;13.30;99.90;;;;;;5014072;28;20429;-52
2021/10/27 16:35:04;;;;;;;6.40;5.80;;;13.10;99.90;;;;;;5014153;28;20189;-55
2021/10/27 16:37:31;;;;;;;6.60;4.97;;;13.20;99.90;;;;;;5013234;28;20603;-55
2021/10/27 16:39:57;;;;;;;5.03;4.53;;;13.10;99.90;;;;;;5012127;28;20411;-53
2021/10/27 16:42:25;;;;;;;4.50;4.10;;;13.00;99.90;;;;;;5013851;28;20406;-57
2021/10/27 16:44:51;;;;;;;4.70;4.30;;;13.00;99.90;;;;;;5013758;28;20442;-54
2021/10/27 16:47:16;;;;;;;4.20;3.73;;;12.90;99.90;;;;;;5013553;28;20395;-57
2021/10/27 16:49:42;;;;;;;4.80;3.60;;;12.90;99.90;;;;;;5012175;28;20197;-55
2021/10/27 16:52:09;;;;;;;4.87;4.30;;;12.80;99.90;;;;;;4995724;28;20176;-54
2021/10/27 16:54:35;;;;;;;4.50;3.90;;;12.70;99.90;;;;;;4998666;28;20212;-57
2021/10/27 16:57:01;;;;;;;4.47;4.07;;;12.60;99.90;;;;;;5032746;28;20406;-56
2021/10/27 16:59:26;;;;;;;6.10;4.93;;;12.50;99.90;;;;;;5033426;28;20479;-58
2021/10/27 17:01:52;;;;;;;8.70;5.13;;;12.50;99.90;;;;;;5033505;28;20175;-55
2021/10/27 17:04:18;;;;;;;8.77;5.13;;;12.50;99.90;;;;;;5034592;28;20556;-52
2021/10/27 17:06:44;;;;;;;5.43;4.93;;;12.50;99.90;;;;;;5016368;28;20668;-52
2021/10/27 17:09:10;;;;;;;8.27;5.37;;;12.50;99.90;;;;;;5033885;28;20419;-53
2021/10/27 17:11:36;;;;;;;11.20;6.23;;;12.40;99.90;;;;;;5033209;28;20462;-54
2021/10/27 17:14:02;;;;;;;6.83;6.13;;;12.40;99.90;;;;;;5034877;28;20543;-55
2021/10/27 17:16:31;;;;;;;7.73;6.93;;;12.30;99.90;;;;;;5035594;28;20188;-52
2021/10/27 17:18:57;;;;;;;8.50;7.50;;;12.30;99.90;;;;;;5034555;28;20446;-55
2021/10/27 17:21:23;;;;;;;9.90;7.40;;;12.20;99.90;;;;;;5015296;28;20426;-56
2021/10/27 17:23:53;;;;;;;8.30;6.83;;;12.20;99.90;;;;;;5013258;28;20192;-56
2021/10/27 17:26:18;;;;;;;6.63;6.03;;;12.10;99.90;;;;;;5011370;28;20789;-56
2021/10/27 17:28:45;;;;;;;5.40;4.90;;;12.20;99.90;;;;;;5013116;28;20418;-57
2021/10/27 17:31:11;;;;;;;6.50;5.70;;;12.30;99.90;;;;;;5013166;28;20226;-52
2021/10/27 17:33:37;;;;;;;7.60;6.30;;;12.20;99.90;;;;;;5013222;28;20437;-57
2021/10/27 17:36:05;;;;;;;7.10;6.47;;;12.20;99.90;;;;;;5012824;28;20413;-53
2021/10/27 17:38:32;;;;;;;5.80;5.30;;;12.20;99.90;;;;;;5013101;28;20544;-55
2021/10/27 17:40:58;;;;;;;7.60;6.67;;;12.30;99.90;;;;;;5012986;28;20425;-54
2021/10/27 17:43:25;;;;;;;15.97;12.00;;;12.30;99.90;;;;;;5013239;28;20982;-53
2021/10/27 17:45:51;;;;;;;15.30;11.67;;;12.30;99.90;;;;;;5013169;28;20193;-56
2021/10/27 17:48:26;;;;;;;17.13;12.10;;;12.30;99.90;;;;;;5013345;28;20461;-52
2021/10/27 17:58:40;;;;;;;11.23;7.47;;;12.10;99.90;;;;;;5012754;28;20479;-54
2021/10/27 18:01:09;;;;;;;7.27;6.30;;;12.00;99.90;;;;;;5012648;28;20393;-53
2021/10/27 18:06:17;;;;;;;5.57;4.97;;;11.90;99.90;;;;;;4987336;28;20983;-56
2021/10/27 18:08:47;;;;;;;6.23;4.90;;;11.80;99.90;;;;;;4995695;28;20928;-52